Airfield :
LOGIN :

Register | Disclaimer

   EN    FR    IT 

 










Legend :    VFR   Marginal VFR   IFR   Intensive IFR   Very Intensive IFR
Visi :
Ceiling :
>= 8 km
>= 3000ft
5 to 8 km
1000 to 3000 ft
1500m to 5 km
500 to 1000 ft
800 to 1500m
200 to 500 ft
< 800m
< 200 ft
Symbols :   Thunderstorms  Fog  Heavy snow  Heavy precipitations  Wind > 20 kt
SIGMETs :     Misc.  Thunderstorms  Icing  Turbulence  Mountain Waves  Volcanic Ashes






- Airport Elevation : 328 ft
- IATA code : PGX


LFBX - Périgueux Bassillac

CURRENT METAR :
  • 011300Z AUTO 05011KT 010V090 CAVOK 11/03 Q1020

EXPIRED METARs :
  • 011230Z AUTO 06007KT 010V100 9999 FEW039 11/04 Q1020
  • 011200Z AUTO 03009KT 010V090 9999 FEW041 11/03 Q1021
  • 011130Z AUTO 03008KT 360V070 CAVOK 11/03 Q1021
  • 011100Z AUTO 05008KT CAVOK 10/04 Q1021
  • 011030Z AUTO 04006KT 330V090 CAVOK 10/05 Q1021

TAF N/A



MET'MAP, your aeronautical weather chart ! - Copyright ORBIFLY December 2007 - Disclaimer

ORBIFLY MET'MAP TEAM :

Programming & Development : Alexandra Zaïnal
Original concept : Baudouin d'Aumeries
Technical & hardware support : Manuel Goepfert
Assistance : Marc-Olivier Méhu




SOURCES & CREDITS :

   NOAA